Terminal Aerodrome Forecast
Issued by NWS Twin Cities, MN

Home | Current Version | Previous Version | Text Only | Print | Product List | Glossary On
Versions: 1 2 3 4 5 6 7 8 9 10 11 12 13 14 15 16 17 18 19
000
FTUS43 KMPX 170400 AAA
TAFSTC
TAF AMD
KSTC 170419Z 1704/1724 36012G18KT P6SM BKN015 OVC025
     FM170600 33011KT P6SM OVC025
     FM172100 33005KT P6SM BKN050=

USA.gov is the U.S. government's official web portal to all federal, state and local government web resources and services.